CSZ9074 RCTP-ZGSZ
Flight info
| Callsign | CSZ9074 |
|---|---|
| Flight time | 1h 17m |
| Altitude | 32000 |
| Route | CHALI T5 AJENT T3 MKG A1 ANPOG R200 GUBLO |
| Aircraft | A321/M-SDE1FGHILORVWXY/HB1 |
Departure
| Time | 2026-04-15 12:42 |
|---|---|
| Airport | Taiwan Taoyuan International Airport (RCTP) |
Arrival
| Time | 2026-04-15 13:59 |
|---|---|
| Airport | Shenzhen Bao'an International Airport (ZGSZ) |
| Time | Latitude | Longitude | Altitude | Speed | Heading |
|---|---|---|---|---|---|
| 2026-04-15 12:15 | 25.07477 | 121.23622 | 115 ft | 0 kts | 322° |
| 2026-04-15 12:15 | 25.07476 | 121.23622 | 115 ft | 0 kts | 322° |
| 2026-04-15 12:16 | 25.07476 | 121.23623 | 115 ft | 0 kts | 322° |
| 2026-04-15 12:16 | 25.07475 | 121.23623 | 115 ft | 0 kts | 322° |
| 2026-04-15 12:17 | 25.07475 | 121.23624 | 115 ft | 0 kts | 322° |
| 2026-04-15 12:31 | 25.07471 | 121.23627 | 115 ft | 2 kts | 322° |
| 2026-04-15 12:31 | 25.07459 | 121.23637 | 115 ft | 2 kts | 322° |
| 2026-04-15 12:31 | 25.07449 | 121.23646 | 115 ft | 2 kts | 322° |
| 2026-04-15 12:31 | 25.07440 | 121.23654 | 115 ft | 2 kts | 322° |
| 2026-04-15 12:32 | 25.07427 | 121.23665 | 115 ft | 2 kts | 322° |
| 2026-04-15 12:32 | 25.07420 | 121.23671 | 115 ft | 2 kts | 319° |
| 2026-04-15 12:32 | 25.07411 | 121.23685 | 115 ft | 2 kts | 290° |
| 2026-04-15 12:32 | 25.07408 | 121.23701 | 115 ft | 2 kts | 267° |
| 2026-04-15 12:33 | 25.07411 | 121.23718 | 115 ft | 2 kts | 244° |
| 2026-04-15 12:33 | 25.07415 | 121.23725 | 115 ft | 1 kts | 233° |
| 2026-04-15 12:33 | 25.07419 | 121.23730 | 115 ft | 1 kts | 231° |
| 2026-04-15 12:35 | 25.07418 | 121.23728 | 115 ft | 2 kts | 231° |
| 2026-04-15 12:35 | 25.07393 | 121.23693 | 115 ft | 10 kts | 232° |
| 2026-04-15 12:35 | 25.07333 | 121.23610 | 115 ft | 15 kts | 230° |
| 2026-04-15 12:35 | 25.07262 | 121.23518 | 115 ft | 16 kts | 230° |
| 2026-04-15 12:36 | 25.07188 | 121.23430 | 115 ft | 17 kts | 226° |
| 2026-04-15 12:36 | 25.07110 | 121.23329 | 115 ft | 17 kts | 228° |
| 2026-04-15 12:36 | 25.07028 | 121.23232 | 115 ft | 18 kts | 226° |
| 2026-04-15 12:36 | 25.06950 | 121.23136 | 115 ft | 18 kts | 230° |
| 2026-04-15 12:37 | 25.06865 | 121.23022 | 115 ft | 24 kts | 229° |
| 2026-04-15 12:37 | 25.06758 | 121.22883 | 115 ft | 23 kts | 230° |
| 2026-04-15 12:37 | 25.06656 | 121.22751 | 115 ft | 23 kts | 228° |
| 2026-04-15 12:37 | 25.06576 | 121.22653 | 115 ft | 22 kts | 229° |
| 2026-04-15 12:38 | 25.06496 | 121.22558 | 115 ft | 22 kts | 228° |
| 2026-04-15 12:38 | 25.06419 | 121.22459 | 115 ft | 22 kts | 230° |
| 2026-04-15 12:38 | 25.06336 | 121.22356 | 115 ft | 22 kts | 228° |
| 2026-04-15 12:38 | 25.06246 | 121.22256 | 115 ft | 21 kts | 208° |
| 2026-04-15 12:39 | 25.06159 | 121.22275 | 115 ft | 17 kts | 127° |
| 2026-04-15 12:39 | 25.06117 | 121.22346 | 115 ft | 10 kts | 102° |
| 2026-04-15 12:39 | 25.06138 | 121.22420 | 115 ft | 5 kts | 48° |
| 2026-04-15 12:39 | 25.06138 | 121.22421 | 115 ft | 0 kts | 48° |
| 2026-04-15 12:41 | 25.06155 | 121.22442 | 115 ft | 12 kts | 47° |
| 2026-04-15 12:41 | 25.06325 | 121.22650 | 115 ft | 77 kts | 50° |
| 2026-04-15 12:41 | 25.06878 | 121.23359 | 116 ft | 150 kts | 49° |
| 2026-04-15 12:41 | 25.07609 | 121.24263 | 205 ft | 190 kts | 47° |
| 2026-04-15 12:42 | 25.08230 | 121.25063 | 896 ft | 184 kts | 50° |
| 2026-04-15 12:42 | 25.08811 | 121.25845 | 1445 ft | 184 kts | 50° |
| 2026-04-15 12:42 | 25.09428 | 121.26671 | 1914 ft | 188 kts | 50° |
| 2026-04-15 12:42 | 25.10060 | 121.27510 | 2198 ft | 199 kts | 50° |
| 2026-04-15 12:43 | 25.10711 | 121.28368 | 2451 ft | 212 kts | 50° |
| 2026-04-15 12:43 | 25.11432 | 121.29317 | 2848 ft | 221 kts | 48° |
| 2026-04-15 12:43 | 25.13556 | 121.30551 | 3756 ft | 243 kts | 2° |
| 2026-04-15 12:43 | 25.15952 | 121.29420 | 4511 ft | 272 kts | 316° |
| 2026-04-15 12:44 | 25.17207 | 121.27838 | 5326 ft | 277 kts | 311° |
| 2026-04-15 12:44 | 25.19063 | 121.25419 | 6522 ft | 283 kts | 313° |
| 2026-04-15 12:44 | 25.20385 | 121.23748 | 7287 ft | 288 kts | 313° |
| 2026-04-15 12:44 | 25.21695 | 121.22110 | 8077 ft | 291 kts | 314° |
| 2026-04-15 12:45 | 25.23062 | 121.20415 | 8849 ft | 294 kts | 314° |
| 2026-04-15 12:45 | 25.24448 | 121.18703 | 9544 ft | 300 kts | 314° |
| 2026-04-15 12:45 | 25.25861 | 121.16956 | 10200 ft | 307 kts | 312° |
| 2026-04-15 12:45 | 25.27019 | 121.14897 | 10588 ft | 324 kts | 290° |
| 2026-04-15 12:46 | 25.27374 | 121.12362 | 10904 ft | 342 kts | 265° |
| 2026-04-15 12:46 | 25.26740 | 121.09787 | 11215 ft | 355 kts | 239° |
| 2026-04-15 12:46 | 25.25222 | 121.07553 | 11560 ft | 367 kts | 225° |
| 2026-04-15 12:46 | 25.23456 | 121.05419 | 11864 ft | 383 kts | 225° |
| 2026-04-15 12:47 | 25.21609 | 121.03182 | 12170 ft | 399 kts | 225° |
| 2026-04-15 12:47 | 25.19664 | 121.00926 | 12737 ft | 406 kts | 222° |
| 2026-04-15 12:47 | 25.17629 | 120.98736 | 13497 ft | 407 kts | 221° |
| 2026-04-15 12:47 | 25.15583 | 120.96558 | 14216 ft | 410 kts | 221° |
| 2026-04-15 12:48 | 25.13506 | 120.94349 | 14896 ft | 413 kts | 221° |
| 2026-04-15 12:48 | 25.11429 | 120.92117 | 15549 ft | 416 kts | 222° |
| 2026-04-15 12:48 | 25.09350 | 120.89869 | 16173 ft | 419 kts | 222° |
| 2026-04-15 12:48 | 25.07271 | 120.87620 | 16769 ft | 423 kts | 222° |
| 2026-04-15 12:49 | 25.05174 | 120.85356 | 17348 ft | 426 kts | 222° |
| 2026-04-15 12:49 | 25.03054 | 120.83068 | 17915 ft | 429 kts | 222° |
| 2026-04-15 12:49 | 25.00908 | 120.80756 | 18469 ft | 433 kts | 223° |
| 2026-04-15 12:49 | 24.98748 | 120.78431 | 19009 ft | 436 kts | 223° |
| 2026-04-15 12:50 | 24.96554 | 120.76071 | 19539 ft | 439 kts | 223° |
| 2026-04-15 12:50 | 24.94362 | 120.73714 | 20048 ft | 442 kts | 223° |
| 2026-04-15 12:50 | 24.92152 | 120.71340 | 20547 ft | 445 kts | 223° |
| 2026-04-15 12:50 | 24.89934 | 120.68958 | 21036 ft | 448 kts | 223° |
| 2026-04-15 12:51 | 24.87694 | 120.66566 | 21512 ft | 451 kts | 223° |
| 2026-04-15 12:51 | 24.85436 | 120.64161 | 21977 ft | 453 kts | 223° |
| 2026-04-15 12:51 | 24.83146 | 120.61719 | 22435 ft | 456 kts | 223° |
| 2026-04-15 12:51 | 24.80857 | 120.59273 | 22879 ft | 459 kts | 223° |
| 2026-04-15 12:52 | 24.78573 | 120.56830 | 23310 ft | 461 kts | 223° |
| 2026-04-15 12:52 | 24.76277 | 120.54377 | 23729 ft | 463 kts | 222° |
| 2026-04-15 12:52 | 24.73900 | 120.52001 | 24133 ft | 465 kts | 219° |
| 2026-04-15 12:52 | 24.71406 | 120.49759 | 24528 ft | 467 kts | 216° |
| 2026-04-15 12:53 | 24.68792 | 120.47657 | 24916 ft | 468 kts | 213° |
| 2026-04-15 12:53 | 24.66119 | 120.45624 | 25292 ft | 471 kts | 213° |
| 2026-04-15 12:53 | 24.63409 | 120.43576 | 25659 ft | 473 kts | 213° |
| 2026-04-15 12:53 | 24.60708 | 120.41537 | 26015 ft | 475 kts | 213° |
| 2026-04-15 12:54 | 24.57994 | 120.39487 | 26367 ft | 477 kts | 213° |
| 2026-04-15 12:54 | 24.55281 | 120.37437 | 26820 ft | 476 kts | 213° |
| 2026-04-15 12:54 | 24.52579 | 120.35395 | 27324 ft | 473 kts | 213° |
| 2026-04-15 12:54 | 24.49947 | 120.33399 | 27762 ft | 472 kts | 213° |
| 2026-04-15 12:55 | 24.47251 | 120.31350 | 27957 ft | 471 kts | 213° |
| 2026-04-15 12:55 | 24.44544 | 120.29289 | 27958 ft | 470 kts | 213° |
| 2026-04-15 12:55 | 24.41887 | 120.27224 | 27962 ft | 470 kts | 214° |
| 2026-04-15 12:55 | 24.39237 | 120.25151 | 27964 ft | 470 kts | 214° |
| 2026-04-15 12:56 | 24.36586 | 120.23080 | 27965 ft | 470 kts | 214° |
| 2026-04-15 12:56 | 24.33932 | 120.21012 | 27965 ft | 470 kts | 213° |
| 2026-04-15 12:56 | 24.31278 | 120.18949 | 27965 ft | 470 kts | 213° |
| 2026-04-15 12:56 | 24.28623 | 120.16890 | 27965 ft | 470 kts | 213° |
| 2026-04-15 12:57 | 24.25940 | 120.14812 | 27965 ft | 470 kts | 213° |
| 2026-04-15 12:57 | 24.23272 | 120.12749 | 27965 ft | 470 kts | 213° |
| 2026-04-15 12:57 | 24.20776 | 120.10821 | 27965 ft | 470 kts | 213° |
| 2026-04-15 12:57 | 24.18015 | 120.08689 | 27965 ft | 470 kts | 213° |
| 2026-04-15 12:58 | 24.15330 | 120.06617 | 27965 ft | 470 kts | 213° |
| 2026-04-15 12:58 | 24.12660 | 120.04550 | 27965 ft | 470 kts | 213° |
| 2026-04-15 12:58 | 24.09986 | 120.02481 | 27964 ft | 470 kts | 213° |
| 2026-04-15 12:58 | 24.07303 | 120.00408 | 27962 ft | 470 kts | 213° |
| 2026-04-15 12:59 | 24.01950 | 119.96281 | 27955 ft | 470 kts | 213° |
| 2026-04-15 12:59 | 23.99280 | 119.94221 | 27950 ft | 470 kts | 213° |
| 2026-04-15 12:59 | 23.96617 | 119.92162 | 27946 ft | 470 kts | 214° |
| 2026-04-15 13:00 | 23.93961 | 119.90110 | 27944 ft | 470 kts | 213° |
| 2026-04-15 13:00 | 23.91297 | 119.88056 | 27942 ft | 470 kts | 213° |
| 2026-04-15 13:00 | 23.88616 | 119.85994 | 27942 ft | 470 kts | 213° |
| 2026-04-15 13:00 | 23.85950 | 119.83956 | 27941 ft | 470 kts | 213° |
| 2026-04-15 13:01 | 23.83284 | 119.81919 | 27940 ft | 470 kts | 213° |
| 2026-04-15 13:01 | 23.80611 | 119.79874 | 27940 ft | 470 kts | 213° |
| 2026-04-15 13:01 | 23.77945 | 119.77833 | 27940 ft | 470 kts | 213° |
| 2026-04-15 13:01 | 23.75282 | 119.75793 | 27940 ft | 470 kts | 213° |
| 2026-04-15 13:02 | 23.72616 | 119.73751 | 27940 ft | 470 kts | 213° |
| 2026-04-15 13:02 | 23.69933 | 119.71698 | 27940 ft | 470 kts | 213° |
| 2026-04-15 13:02 | 23.67262 | 119.69654 | 27940 ft | 470 kts | 213° |
| 2026-04-15 13:02 | 23.64598 | 119.67616 | 27940 ft | 471 kts | 213° |
| 2026-04-15 13:03 | 23.61999 | 119.65480 | 27939 ft | 472 kts | 219° |
| 2026-04-15 13:03 | 23.59634 | 119.63018 | 27941 ft | 473 kts | 225° |
| 2026-04-15 13:03 | 23.57552 | 119.60251 | 27942 ft | 475 kts | 232° |
| 2026-04-15 13:03 | 23.55756 | 119.57311 | 27943 ft | 476 kts | 236° |
| 2026-04-15 13:04 | 23.53952 | 119.54198 | 27941 ft | 476 kts | 236° |
| 2026-04-15 13:04 | 23.52197 | 119.51141 | 27941 ft | 476 kts | 236° |
| 2026-04-15 13:04 | 23.50474 | 119.48140 | 27940 ft | 476 kts | 236° |
| 2026-04-15 13:04 | 23.48703 | 119.45068 | 27940 ft | 476 kts | 236° |
| 2026-04-15 13:05 | 23.46926 | 119.41995 | 27940 ft | 476 kts | 236° |
| 2026-04-15 13:05 | 23.45141 | 119.38915 | 27940 ft | 476 kts | 236° |
| 2026-04-15 13:05 | 23.43352 | 119.35832 | 27940 ft | 476 kts | 236° |
| 2026-04-15 13:05 | 23.41557 | 119.32737 | 27940 ft | 476 kts | 236° |
| 2026-04-15 13:06 | 23.39776 | 119.29659 | 27940 ft | 476 kts | 236° |
| 2026-04-15 13:06 | 23.37997 | 119.26588 | 27940 ft | 476 kts | 236° |
| 2026-04-15 13:06 | 23.36626 | 119.24227 | 27940 ft | 476 kts | 236° |
| 2026-04-15 13:06 | 23.34562 | 119.20681 | 27940 ft | 476 kts | 236° |
| 2026-04-15 13:07 | 23.32775 | 119.17618 | 27940 ft | 476 kts | 236° |
| 2026-04-15 13:07 | 23.30984 | 119.14548 | 27940 ft | 476 kts | 236° |
| 2026-04-15 13:07 | 23.29182 | 119.11461 | 27940 ft | 476 kts | 236° |
| 2026-04-15 13:07 | 23.27392 | 119.08397 | 27940 ft | 476 kts | 236° |
| 2026-04-15 13:08 | 23.25607 | 119.05345 | 27940 ft | 476 kts | 236° |
| 2026-04-15 13:08 | 23.23821 | 119.02291 | 27940 ft | 476 kts | 236° |
| 2026-04-15 13:08 | 23.22060 | 118.99285 | 27939 ft | 478 kts | 236° |
| 2026-04-15 13:08 | 23.20289 | 118.96264 | 27939 ft | 479 kts | 236° |
| 2026-04-15 13:09 | 23.18509 | 118.93232 | 27939 ft | 481 kts | 236° |
| 2026-04-15 13:09 | 23.16693 | 118.90140 | 27939 ft | 482 kts | 236° |
| 2026-04-15 13:09 | 23.14874 | 118.87043 | 27940 ft | 483 kts | 236° |
| 2026-04-15 13:09 | 23.13087 | 118.84001 | 27940 ft | 484 kts | 236° |
| 2026-04-15 13:10 | 23.11257 | 118.80889 | 27940 ft | 485 kts | 236° |
| 2026-04-15 13:10 | 23.09438 | 118.77797 | 27940 ft | 485 kts | 236° |
| 2026-04-15 13:10 | 23.07618 | 118.74703 | 27940 ft | 485 kts | 236° |
| 2026-04-15 13:10 | 23.05797 | 118.71609 | 27940 ft | 485 kts | 236° |
| 2026-04-15 13:11 | 23.03960 | 118.68491 | 27940 ft | 485 kts | 236° |
| 2026-04-15 13:11 | 23.02141 | 118.65409 | 27940 ft | 485 kts | 236° |
| 2026-04-15 13:11 | 23.00317 | 118.62320 | 27940 ft | 486 kts | 236° |
| 2026-04-15 13:11 | 22.98518 | 118.59277 | 27940 ft | 486 kts | 236° |
| 2026-04-15 13:12 | 22.96701 | 118.56204 | 27940 ft | 487 kts | 236° |
| 2026-04-15 13:12 | 22.94878 | 118.53119 | 27940 ft | 487 kts | 236° |
| 2026-04-15 13:12 | 22.93040 | 118.50011 | 27940 ft | 488 kts | 236° |
| 2026-04-15 13:12 | 22.91215 | 118.46930 | 27940 ft | 488 kts | 236° |
| 2026-04-15 13:13 | 22.89381 | 118.43844 | 27940 ft | 489 kts | 236° |
| 2026-04-15 13:13 | 22.87532 | 118.40760 | 27940 ft | 489 kts | 236° |
| 2026-04-15 13:13 | 22.85676 | 118.37671 | 27940 ft | 489 kts | 236° |
| 2026-04-15 13:13 | 22.83821 | 118.34579 | 27940 ft | 489 kts | 235° |
| 2026-04-15 13:14 | 22.81982 | 118.31495 | 27940 ft | 489 kts | 236° |
| 2026-04-15 13:14 | 22.80141 | 118.28402 | 27940 ft | 489 kts | 236° |
| 2026-04-15 13:14 | 22.78291 | 118.25296 | 27940 ft | 488 kts | 235° |
| 2026-04-15 13:14 | 22.76445 | 118.22202 | 27940 ft | 488 kts | 235° |
| 2026-04-15 13:15 | 22.74596 | 118.19109 | 27940 ft | 488 kts | 235° |
| 2026-04-15 13:15 | 22.72736 | 118.16003 | 27940 ft | 488 kts | 235° |
| 2026-04-15 13:15 | 22.70876 | 118.12902 | 27940 ft | 488 kts | 235° |
| 2026-04-15 13:15 | 22.69019 | 118.09807 | 27940 ft | 488 kts | 235° |
| 2026-04-15 13:16 | 22.67158 | 118.06705 | 27940 ft | 488 kts | 235° |
| 2026-04-15 13:16 | 22.65289 | 118.03577 | 27938 ft | 489 kts | 237° |
| 2026-04-15 13:16 | 22.63877 | 118.00207 | 27927 ft | 492 kts | 253° |
| 2026-04-15 13:16 | 22.63441 | 117.96521 | 27931 ft | 494 kts | 271° |
| 2026-04-15 13:17 | 22.64007 | 117.92897 | 27926 ft | 495 kts | 288° |
| 2026-04-15 13:17 | 22.65542 | 117.89557 | 27850 ft | 493 kts | 306° |
| 2026-04-15 13:17 | 22.67806 | 117.86745 | 27795 ft | 492 kts | 314° |
| 2026-04-15 13:17 | 22.70185 | 117.84088 | 27719 ft | 492 kts | 315° |
| 2026-04-15 13:18 | 22.72581 | 117.81433 | 27645 ft | 491 kts | 315° |
| 2026-04-15 13:18 | 22.74954 | 117.78778 | 27570 ft | 491 kts | 315° |
| 2026-04-15 13:18 | 22.77309 | 117.76114 | 27497 ft | 490 kts | 314° |
| 2026-04-15 13:18 | 22.79655 | 117.73440 | 27490 ft | 490 kts | 314° |
| 2026-04-15 13:19 | 22.82003 | 117.70751 | 27487 ft | 490 kts | 314° |
| 2026-04-15 13:19 | 22.84336 | 117.68071 | 27486 ft | 490 kts | 314° |
| 2026-04-15 13:19 | 22.86673 | 117.65383 | 27486 ft | 490 kts | 314° |
| 2026-04-15 13:19 | 22.89023 | 117.62677 | 27486 ft | 490 kts | 314° |
| 2026-04-15 13:20 | 22.91363 | 117.59981 | 27486 ft | 490 kts | 314° |
| 2026-04-15 13:20 | 22.93702 | 117.57285 | 27486 ft | 489 kts | 314° |
| 2026-04-15 13:20 | 22.96035 | 117.54597 | 27486 ft | 489 kts | 314° |
| 2026-04-15 13:20 | 22.98128 | 117.51645 | 27474 ft | 493 kts | 300° |
| 2026-04-15 13:21 | 22.99437 | 117.48211 | 27481 ft | 492 kts | 284° |
| 2026-04-15 13:21 | 22.99853 | 117.44533 | 27483 ft | 491 kts | 269° |
| 2026-04-15 13:21 | 22.99710 | 117.40859 | 27489 ft | 491 kts | 266° |
| 2026-04-15 13:21 | 22.99484 | 117.37145 | 27493 ft | 491 kts | 266° |
| 2026-04-15 13:22 | 22.99290 | 117.33456 | 27499 ft | 491 kts | 266° |
| 2026-04-15 13:22 | 22.99122 | 117.29763 | 27504 ft | 491 kts | 266° |
| 2026-04-15 13:22 | 22.98965 | 117.26068 | 27507 ft | 491 kts | 266° |
| 2026-04-15 13:22 | 22.98811 | 117.22346 | 27509 ft | 491 kts | 266° |
| 2026-04-15 13:23 | 22.98657 | 117.18651 | 27510 ft | 492 kts | 266° |
| 2026-04-15 13:23 | 22.98503 | 117.14959 | 27510 ft | 492 kts | 266° |
| 2026-04-15 13:23 | 22.98347 | 117.11260 | 27510 ft | 492 kts | 266° |
| 2026-04-15 13:23 | 22.98189 | 117.07566 | 27510 ft | 492 kts | 267° |
| 2026-04-15 13:24 | 22.98028 | 117.03855 | 27510 ft | 493 kts | 267° |
| 2026-04-15 13:24 | 22.97867 | 117.00148 | 27494 ft | 493 kts | 268° |
| 2026-04-15 13:24 | 22.97704 | 116.96421 | 27389 ft | 492 kts | 268° |
| 2026-04-15 13:24 | 22.97543 | 116.92722 | 27290 ft | 492 kts | 268° |
| 2026-04-15 13:25 | 22.97382 | 116.89030 | 27192 ft | 490 kts | 268° |
| 2026-04-15 13:25 | 22.97221 | 116.85351 | 27093 ft | 490 kts | 268° |
| 2026-04-15 13:25 | 22.97061 | 116.81668 | 26994 ft | 490 kts | 268° |
| 2026-04-15 13:25 | 22.96899 | 116.77982 | 26895 ft | 489 kts | 268° |
| 2026-04-15 13:26 | 22.96736 | 116.74304 | 26795 ft | 488 kts | 268° |
| 2026-04-15 13:26 | 22.96571 | 116.70610 | 26695 ft | 488 kts | 268° |
| 2026-04-15 13:26 | 22.96405 | 116.66936 | 26596 ft | 487 kts | 268° |
| 2026-04-15 13:26 | 22.96239 | 116.63273 | 26496 ft | 486 kts | 268° |
| 2026-04-15 13:27 | 22.96072 | 116.59619 | 26397 ft | 486 kts | 268° |
| 2026-04-15 13:27 | 22.95904 | 116.55950 | 26298 ft | 485 kts | 268° |
| 2026-04-15 13:27 | 22.95736 | 116.52313 | 26199 ft | 484 kts | 268° |
| 2026-04-15 13:27 | 22.95569 | 116.48718 | 26100 ft | 484 kts | 268° |
| 2026-04-15 13:28 | 22.95396 | 116.45011 | 25999 ft | 483 kts | 268° |
| 2026-04-15 13:28 | 22.95226 | 116.41391 | 25900 ft | 482 kts | 268° |
| 2026-04-15 13:28 | 22.95054 | 116.37776 | 25800 ft | 481 kts | 268° |
| 2026-04-15 13:28 | 22.94785 | 116.34174 | 25699 ft | 481 kts | 265° |
| 2026-04-15 13:29 | 22.94435 | 116.30586 | 25601 ft | 481 kts | 265° |
| 2026-04-15 13:29 | 22.94069 | 116.27003 | 25503 ft | 480 kts | 264° |
| 2026-04-15 13:29 | 22.93698 | 116.23421 | 25377 ft | 479 kts | 264° |
| 2026-04-15 13:29 | 22.93326 | 116.19824 | 25251 ft | 478 kts | 264° |
| 2026-04-15 13:30 | 22.92957 | 116.16257 | 25127 ft | 477 kts | 264° |
| 2026-04-15 13:30 | 22.92589 | 116.12697 | 25002 ft | 476 kts | 265° |
| 2026-04-15 13:30 | 22.92221 | 116.09142 | 24878 ft | 475 kts | 265° |
| 2026-04-15 13:30 | 22.91854 | 116.05597 | 24753 ft | 475 kts | 265° |
| 2026-04-15 13:31 | 22.91486 | 116.02049 | 24628 ft | 474 kts | 265° |
| 2026-04-15 13:31 | 22.91117 | 115.98508 | 24504 ft | 473 kts | 265° |
| 2026-04-15 13:31 | 22.90742 | 115.94925 | 24379 ft | 472 kts | 265° |
| 2026-04-15 13:31 | 22.90371 | 115.91400 | 24254 ft | 471 kts | 265° |
| 2026-04-15 13:32 | 22.90001 | 115.87880 | 24129 ft | 470 kts | 265° |
| 2026-04-15 13:32 | 22.89645 | 115.84363 | 24004 ft | 469 kts | 265° |
| 2026-04-15 13:32 | 22.89298 | 115.80861 | 23880 ft | 468 kts | 265° |
| 2026-04-15 13:32 | 22.88952 | 115.77367 | 23754 ft | 467 kts | 265° |
| 2026-04-15 13:33 | 22.88604 | 115.73877 | 23630 ft | 466 kts | 265° |
| 2026-04-15 13:33 | 22.88253 | 115.70369 | 23520 ft | 465 kts | 265° |
| 2026-04-15 13:33 | 22.87903 | 115.66887 | 23514 ft | 465 kts | 265° |
| 2026-04-15 13:33 | 22.87556 | 115.63453 | 23512 ft | 465 kts | 265° |
| 2026-04-15 13:34 | 22.87204 | 115.59976 | 23337 ft | 466 kts | 265° |
| 2026-04-15 13:34 | 22.86849 | 115.56496 | 22847 ft | 460 kts | 265° |
| 2026-04-15 13:34 | 22.86497 | 115.53055 | 22373 ft | 457 kts | 265° |
| 2026-04-15 13:34 | 22.86149 | 115.49652 | 21896 ft | 453 kts | 265° |
| 2026-04-15 13:35 | 22.85801 | 115.46246 | 21416 ft | 450 kts | 265° |
| 2026-04-15 13:35 | 22.85457 | 115.42893 | 20941 ft | 446 kts | 265° |
| 2026-04-15 13:35 | 22.85115 | 115.39555 | 20460 ft | 443 kts | 265° |
| 2026-04-15 13:35 | 22.84778 | 115.36288 | 19988 ft | 439 kts | 265° |
| 2026-04-15 13:36 | 22.84442 | 115.33035 | 19628 ft | 435 kts | 265° |
| 2026-04-15 13:36 | 22.84109 | 115.29805 | 19507 ft | 437 kts | 265° |
| 2026-04-15 13:36 | 22.83773 | 115.26569 | 19209 ft | 433 kts | 265° |
| 2026-04-15 13:36 | 22.83435 | 115.23314 | 18933 ft | 432 kts | 265° |
| 2026-04-15 13:37 | 22.83107 | 115.20168 | 18665 ft | 430 kts | 265° |
| 2026-04-15 13:37 | 22.82797 | 115.17198 | 18411 ft | 428 kts | 265° |
| 2026-04-15 13:37 | 22.82450 | 115.13882 | 18125 ft | 425 kts | 265° |
| 2026-04-15 13:37 | 22.82117 | 115.10701 | 17850 ft | 423 kts | 265° |
| 2026-04-15 13:38 | 22.81791 | 115.07589 | 17579 ft | 420 kts | 265° |
| 2026-04-15 13:38 | 22.81461 | 115.04454 | 17304 ft | 418 kts | 265° |
| 2026-04-15 13:38 | 22.81134 | 115.01349 | 17031 ft | 416 kts | 265° |
| 2026-04-15 13:38 | 22.80807 | 114.98243 | 16755 ft | 414 kts | 264° |
| 2026-04-15 13:39 | 22.80479 | 114.95137 | 16481 ft | 412 kts | 264° |
| 2026-04-15 13:39 | 22.80154 | 114.92055 | 16207 ft | 411 kts | 264° |
| 2026-04-15 13:39 | 22.79830 | 114.88986 | 15930 ft | 409 kts | 264° |
| 2026-04-15 13:39 | 22.79506 | 114.85931 | 15658 ft | 407 kts | 264° |
| 2026-04-15 13:40 | 22.79181 | 114.82887 | 15618 ft | 407 kts | 264° |
| 2026-04-15 13:40 | 22.78853 | 114.79807 | 15612 ft | 407 kts | 264° |
| 2026-04-15 13:40 | 22.78538 | 114.76862 | 15609 ft | 407 kts | 264° |
| 2026-04-15 13:40 | 22.78208 | 114.73758 | 15312 ft | 405 kts | 265° |
| 2026-04-15 13:41 | 22.77898 | 114.70720 | 15014 ft | 403 kts | 265° |
| 2026-04-15 13:41 | 22.77598 | 114.67745 | 14715 ft | 400 kts | 265° |
| 2026-04-15 13:41 | 22.77363 | 114.65424 | 14481 ft | 396 kts | 265° |
| 2026-04-15 13:41 | 22.77061 | 114.62476 | 14182 ft | 394 kts | 265° |
| 2026-04-15 13:42 | 22.76757 | 114.59506 | 13879 ft | 393 kts | 265° |
| 2026-04-15 13:42 | 22.76457 | 114.56571 | 13578 ft | 391 kts | 265° |
| 2026-04-15 13:42 | 22.76161 | 114.53665 | 13279 ft | 389 kts | 265° |
| 2026-04-15 13:42 | 22.75866 | 114.50778 | 12980 ft | 387 kts | 265° |
| 2026-04-15 13:43 | 22.75575 | 114.47938 | 12685 ft | 385 kts | 265° |
| 2026-04-15 13:43 | 22.75275 | 114.45037 | 12381 ft | 384 kts | 265° |
| 2026-04-15 13:43 | 22.74978 | 114.42182 | 12080 ft | 377 kts | 264° |
| 2026-04-15 13:43 | 22.74686 | 114.39388 | 11778 ft | 366 kts | 265° |
| 2026-04-15 13:44 | 22.74409 | 114.36723 | 11718 ft | 349 kts | 265° |
| 2026-04-15 13:44 | 22.74140 | 114.34137 | 11457 ft | 339 kts | 264° |
| 2026-04-15 13:44 | 22.73881 | 114.31619 | 11182 ft | 330 kts | 264° |
| 2026-04-15 13:44 | 22.73633 | 114.29172 | 10906 ft | 322 kts | 264° |
| 2026-04-15 13:45 | 22.73392 | 114.26790 | 10629 ft | 314 kts | 264° |
| 2026-04-15 13:45 | 22.73154 | 114.24457 | 10351 ft | 307 kts | 264° |
| 2026-04-15 13:45 | 22.72919 | 114.22162 | 10072 ft | 300 kts | 264° |
| 2026-04-15 13:47 | 22.71478 | 114.08359 | 8410 ft | 259 kts | 264° |
| 2026-04-15 13:47 | 22.71281 | 114.06463 | 8165 ft | 257 kts | 264° |
| 2026-04-15 13:47 | 22.71081 | 114.04531 | 7921 ft | 256 kts | 264° |
| 2026-04-15 13:48 | 22.70890 | 114.02733 | 7900 ft | 256 kts | 263° |
| 2026-04-15 13:48 | 22.70663 | 114.00733 | 7610 ft | 257 kts | 263° |
| 2026-04-15 13:48 | 22.70452 | 113.98891 | 7319 ft | 254 kts | 263° |
| 2026-04-15 13:48 | 22.70232 | 113.96969 | 7015 ft | 252 kts | 263° |
| 2026-04-15 13:49 | 22.70015 | 113.95074 | 6712 ft | 251 kts | 263° |
| 2026-04-15 13:49 | 22.69800 | 113.93190 | 6413 ft | 248 kts | 263° |
| 2026-04-15 13:49 | 22.69590 | 113.91335 | 6111 ft | 245 kts | 263° |
| 2026-04-15 13:49 | 22.69672 | 113.89564 | 5881 ft | 240 kts | 290° |
| 2026-04-15 13:50 | 22.70516 | 113.88214 | 5864 ft | 242 kts | 319° |
| 2026-04-15 13:50 | 22.72088 | 113.87231 | 5602 ft | 240 kts | 333° |
| 2026-04-15 13:50 | 22.73599 | 113.86453 | 5325 ft | 238 kts | 332° |
| 2026-04-15 13:50 | 22.74409 | 113.86030 | 5176 ft | 237 kts | 332° |
| 2026-04-15 13:51 | 22.75617 | 113.85387 | 4953 ft | 236 kts | 332° |
| 2026-04-15 13:51 | 22.77078 | 113.84595 | 4678 ft | 235 kts | 331° |
| 2026-04-15 13:51 | 22.78510 | 113.83813 | 4406 ft | 233 kts | 331° |
| 2026-04-15 13:51 | 22.79929 | 113.83040 | 4155 ft | 231 kts | 331° |
| 2026-04-15 13:52 | 22.81332 | 113.82270 | 3923 ft | 224 kts | 331° |
| 2026-04-15 13:52 | 22.82681 | 113.81525 | 3699 ft | 214 kts | 331° |
| 2026-04-15 13:52 | 22.83882 | 113.80605 | 3433 ft | 202 kts | 306° |
| 2026-04-15 13:52 | 22.84327 | 113.79303 | 3203 ft | 188 kts | 270° |
| 2026-04-15 13:53 | 22.84303 | 113.77892 | 3010 ft | 188 kts | 267° |
| 2026-04-15 13:53 | 22.84280 | 113.76484 | 3014 ft | 189 kts | 267° |
| 2026-04-15 13:53 | 22.84006 | 113.75135 | 2976 ft | 185 kts | 240° |
| 2026-04-15 13:53 | 22.83319 | 113.73938 | 2999 ft | 186 kts | 237° |
| 2026-04-15 13:54 | 22.82576 | 113.72821 | 2977 ft | 185 kts | 220° |
| 2026-04-15 13:54 | 22.81398 | 113.72333 | 2986 ft | 187 kts | 181° |
| 2026-04-15 13:54 | 22.80193 | 113.72701 | 3012 ft | 189 kts | 160° |
| 2026-04-15 13:54 | 22.79496 | 113.72942 | 3018 ft | 189 kts | 166° |
| 2026-04-15 13:55 | 22.78233 | 113.73380 | 2827 ft | 188 kts | 161° |
| 2026-04-15 13:55 | 22.77033 | 113.73928 | 2590 ft | 188 kts | 157° |
| 2026-04-15 13:55 | 22.75871 | 113.74533 | 2345 ft | 187 kts | 156° |
| 2026-04-15 13:55 | 22.74726 | 113.75147 | 2101 ft | 186 kts | 155° |
| 2026-04-15 13:56 | 22.73575 | 113.75772 | 1852 ft | 182 kts | 155° |
| 2026-04-15 13:56 | 22.72487 | 113.76367 | 1603 ft | 170 kts | 155° |
| 2026-04-15 13:56 | 22.71483 | 113.76919 | 1404 ft | 160 kts | 155° |
| 2026-04-15 13:56 | 22.70524 | 113.77445 | 1180 ft | 149 kts | 155° |
| 2026-04-15 13:57 | 22.69647 | 113.77926 | 1001 ft | 149 kts | 155° |
| 2026-04-15 13:57 | 22.68742 | 113.78422 | 796 ft | 142 kts | 155° |
| 2026-04-15 13:57 | 22.67874 | 113.78899 | 628 ft | 141 kts | 155° |
| 2026-04-15 13:57 | 22.66999 | 113.79387 | 444 ft | 141 kts | 155° |
| 2026-04-15 13:58 | 22.66137 | 113.79870 | 245 ft | 140 kts | 154° |
| 2026-04-15 13:58 | 22.65273 | 113.80335 | 66 ft | 140 kts | 156° |
| 2026-04-15 13:58 | 22.64472 | 113.80757 | 23 ft | 108 kts | 155° |
| 2026-04-15 13:58 | 22.63960 | 113.81039 | 22 ft | 59 kts | 152° |
| 2026-04-15 13:59 | 22.63679 | 113.81190 | 22 ft | 42 kts | 155° |
| 2026-04-15 13:59 | 22.63433 | 113.81265 | 22 ft | 32 kts | 182° |
| 2026-04-15 13:59 | 22.63303 | 113.81183 | 22 ft | 22 kts | 232° |
| 2026-04-15 13:59 | 22.63332 | 113.81061 | 22 ft | 15 kts | 312° |
| 2026-04-15 14:00 | 22.63351 | 113.80976 | 22 ft | 6 kts | 231° |
| 2026-04-15 14:00 | 22.63311 | 113.80940 | 22 ft | 9 kts | 231° |
| 2026-04-15 14:00 | 22.63283 | 113.80877 | 22 ft | 10 kts | 256° |
| 2026-04-15 14:00 | 22.63317 | 113.80839 | 22 ft | 7 kts | 332° |
| 2026-04-15 14:01 | 22.63333 | 113.80826 | 22 ft | 0 kts | 331° |